createdAt,value
2016-11-29T00:00:40.783Z,70.34
2016-11-29T00:01:40.741Z,70.43
2016-11-29T00:02:40.697Z,70.24
2016-11-29T00:03:40.651Z,70.15
2016-11-29T00:04:40.609Z,70.53
2016-11-29T00:05:40.565Z,70.53
2016-11-29T00:06:40.520Z,70.62
2016-11-29T00:07:40.476Z,70.62
2016-11-29T00:08:40.430Z,70.62
2016-11-29T00:09:40.384Z,70.05
2016-11-29T00:10:40.340Z,69.86
2016-11-29T00:11:40.300Z,70.24
2016-11-29T00:12:40.252Z,70.24
2016-11-29T00:13:40.210Z,70.05
2016-11-29T00:14:40.167Z,70.05
2016-11-29T00:15:39.820Z,70.43
2016-11-29T00:16:40.076Z,70.24
2016-11-29T00:17:40.034Z,70.24
2016-11-29T00:18:39.992Z,70.34
2016-11-29T00:19:39.944Z,70.15
2016-11-29T00:20:39.905Z,70.62
2016-11-29T00:21:39.859Z,70.34
2016-11-29T00:22:39.814Z,69.96
2016-11-29T00:23:39.771Z,70.05
2016-11-29T00:24:39.728Z,70.15
2016-11-29T00:25:39.682Z,70.05
2016-11-29T00:26:39.639Z,70.15
2016-11-29T00:27:39.291Z,70.62
2016-11-29T00:28:39.551Z,69.96
2016-11-29T00:29:39.206Z,70.15
2016-11-29T00:30:39.461Z,70.24
2016-11-29T00:31:39.112Z,70.34
2016-11-29T00:32:39.370Z,70.24
2016-11-29T00:33:39.332Z,70.24
2016-11-29T00:34:38.987Z,69.96
2016-11-29T00:35:39.241Z,70.24
2016-11-29T00:36:39.196Z,70.05
2016-11-29T00:37:39.149Z,70.24
2016-11-29T00:38:39.109Z,69.96
2016-11-29T00:39:38.760Z,69.86
2016-11-29T00:40:38.718Z,69.77
2016-11-29T00:41:38.676Z,70.15
2016-11-29T00:42:38.629Z,70.24
2016-11-29T00:43:38.889Z,70.24
2016-11-29T00:44:38.843Z,70.15
2016-11-29T00:45:38.800Z,70.15
2016-11-29T00:46:38.754Z,69.96
2016-11-29T00:47:38.710Z,69.86
2016-11-29T00:48:38.669Z,69.96
2016-11-29T00:49:38.622Z,70.05
2016-11-29T00:50:38.579Z,70.24
2016-11-29T00:51:38.536Z,70.05
2016-11-29T00:52:38.492Z,70.43
2016-11-29T00:53:38.446Z,70.53
2016-11-29T00:54:38.402Z,70.43
2016-11-29T00:55:38.358Z,70.34
2016-11-29T00:56:38.318Z,70.24
2016-11-29T00:57:38.269Z,70.34
2016-11-29T00:58:38.229Z,70.53
2016-11-29T00:59:37.879Z,70.53
2016-11-29T01:00:37.833Z,70.62
2016-11-29T01:01:38.094Z,70.34
2016-11-29T01:02:37.743Z,70.34
2016-11-29T01:03:37.704Z,70.43
2016-11-29T01:04:37.959Z,70.15
2016-11-29T01:05:37.915Z,69.77
2016-11-29T01:06:37.871Z,69.3
2016-11-29T01:07:37.826Z,69.67
2016-11-29T01:08:37.481Z,69.39
2016-11-29T01:09:37.739Z,69.3
2016-11-29T01:10:37.393Z,69.58
2016-11-29T01:11:37.649Z,69.96
2016-11-29T01:12:37.613Z,69.77
2016-11-29T01:13:37.264Z,69.11
2016-11-29T01:14:37.518Z,69.2
2016-11-29T01:15:37.176Z,69.01
2016-11-29T01:16:37.130Z,69.39
2016-11-29T01:17:37.386Z,69.2
2016-11-29T01:18:37.342Z,69.11
2016-11-29T01:19:37.299Z,68.82
2016-11-29T01:20:36.952Z,68.92
2016-11-29T01:21:37.211Z,69.2
2016-11-29T01:22:37.164Z,69.39
2016-11-29T01:23:37.123Z,68.82
2016-11-29T01:24:37.077Z,68.82
2016-11-29T01:25:37.031Z,68.63
2016-11-29T01:26:36.988Z,68.44
2016-11-29T01:27:36.942Z,67.69
2016-11-29T01:28:36.900Z,67.97
2016-11-29T01:29:36.549Z,67.97
2016-11-29T01:30:36.812Z,67.79
2016-11-29T01:31:36.466Z,67.79
2016-11-29T01:32:36.721Z,68.35
2016-11-29T01:33:36.680Z,68.35
2016-11-29T01:34:36.332Z,67.88
2016-11-29T01:35:36.289Z,68.07
2016-11-29T01:36:36.544Z,68.54
2016-11-29T01:37:36.502Z,68.54
2016-11-29T01:38:36.458Z,68.35
2016-11-29T01:39:36.112Z,67.79
2016-11-29T01:40:36.369Z,67.6
2016-11-29T01:41:36.324Z,67.88
2016-11-29T01:42:36.281Z,67.97
2016-11-29T01:43:35.935Z,67.79
2016-11-29T01:44:36.194Z,67.32
2016-11-29T01:45:36.147Z,67.41
2016-11-29T01:46:36.103Z,67.13
2016-11-29T01:47:35.756Z,67.5
2016-11-29T01:48:36.017Z,67.6
2016-11-29T01:49:35.970Z,67.6
2016-11-29T01:50:35.927Z,67.41
2016-11-29T01:51:35.881Z,67.6
2016-11-29T01:52:35.837Z,67.41
2016-11-29T01:53:35.795Z,67.13
2016-11-29T01:54:35.751Z,67.41
2016-11-29T01:55:35.705Z,67.6
2016-11-29T01:56:35.660Z,67.22
2016-11-29T01:57:35.622Z,66.28
2016-11-29T01:58:35.606Z,66.56
2016-11-29T01:59:35.529Z,66.65
2016-11-29T02:00:35.486Z,66.65
2016-11-29T02:01:35.137Z,66.65
2016-11-29T02:02:35.398Z,66.56
2016-11-29T02:03:35.352Z,66.84
2016-11-29T02:04:35.308Z,66.28
2016-11-29T02:05:35.294Z,66.94
2016-11-29T02:06:34.916Z,66.94
2016-11-29T02:07:35.174Z,66.56
2016-11-29T02:08:35.130Z,66.37
2016-11-29T02:09:35.090Z,66.56
2016-11-29T02:10:35.043Z,66.18
2016-11-29T02:11:35.017Z,66.09
2016-11-29T02:12:34.958Z,66.09
2016-11-29T02:13:34.909Z,66.18
2016-11-29T02:14:34.562Z,66.18
2016-11-29T02:15:34.820Z,66.47
2016-11-29T02:16:34.780Z,66.37
2016-11-29T02:17:34.734Z,66.56
2016-11-29T02:18:34.695Z,66.18
2016-11-29T02:19:34.646Z,66.56
2016-11-29T02:20:34.606Z,66.75
2016-11-29T02:21:34.556Z,66.09
2016-11-29T02:22:34.515Z,66.28
2016-11-29T02:23:34.467Z,66.37
2016-11-29T02:24:34.121Z,66.37
2016-11-29T02:25:34.388Z,66.47
2016-11-29T02:26:34.034Z,66.56
2016-11-29T02:27:34.289Z,66.37
2016-11-29T02:28:34.246Z,66.94
2016-11-29T02:29:34.201Z,66.65
2016-11-29T02:30:34.156Z,66.47
2016-11-29T02:31:33.811Z,66.94
2016-11-29T02:32:34.069Z,66.84
2016-11-29T02:33:33.723Z,66.28
2016-11-29T02:34:33.979Z,65.9
2016-11-29T02:35:33.934Z,65.99
2016-11-29T02:36:33.889Z,65.9
2016-11-29T02:37:33.847Z,65.9
2016-11-29T02:38:33.803Z,66.18
2016-11-29T02:39:33.758Z,66.37
2016-11-29T02:40:33.747Z,66.65
2016-11-29T02:41:33.368Z,66.94
2016-11-29T02:42:33.623Z,66.65
2016-11-29T02:43:33.585Z,66.75
2016-11-29T02:44:33.536Z,67.6
2016-11-29T02:45:33.502Z,67.22
2016-11-29T02:46:33.145Z,66.75
2016-11-29T02:47:33.404Z,66.65
2016-11-29T02:48:33.357Z,66.56
2016-11-29T02:49:33.314Z,66.75
2016-11-29T02:50:33.271Z,66.65
2016-11-29T02:51:33.226Z,66.65
2016-11-29T02:52:33.183Z,66.84
2016-11-29T02:53:33.139Z,67.13
2016-11-29T02:54:32.792Z,67.22
2016-11-29T02:55:33.053Z,67.13
2016-11-29T02:56:33.006Z,67.03
2016-11-29T02:57:32.962Z,67.13
2016-11-29T02:58:32.918Z,67.41
2016-11-29T02:59:32.571Z,67.32
2016-11-29T03:00:32.832Z,67.6
2016-11-29T03:01:32.783Z,67.6
2016-11-29T03:02:32.739Z,67.6
2016-11-29T03:03:32.696Z,67.6
2016-11-29T03:04:32.349Z,67.5
2016-11-29T03:05:32.305Z,67.6
2016-11-29T03:06:32.265Z,67.88
2016-11-29T03:07:32.519Z,68.07
2016-11-29T03:08:32.477Z,67.6
2016-11-29T03:09:32.428Z,67.79
2016-11-29T03:10:32.386Z,67.88
2016-11-29T03:11:32.038Z,67.79
2016-11-29T03:12:32.295Z,67.79
2016-11-29T03:13:31.950Z,67.6
2016-11-29T03:14:32.207Z,67.88
2016-11-29T03:15:32.163Z,67.88
2016-11-29T03:16:32.132Z,67.5
2016-11-29T03:17:32.074Z,67.6
2016-11-29T03:18:32.034Z,67.5
2016-11-29T03:19:31.989Z,67.97
2016-11-29T03:20:31.946Z,68.07
2016-11-29T03:21:31.897Z,67.41
2016-11-29T03:22:31.853Z,67.41
2016-11-29T03:23:31.511Z,67.69
2016-11-29T03:24:31.764Z,67.69
2016-11-29T03:25:31.723Z,67.69
2016-11-29T03:26:31.677Z,67.79
2016-11-29T03:27:31.635Z,68.07
2016-11-29T03:28:31.587Z,68.44
2016-11-29T03:29:31.543Z,68.44
2016-11-29T03:30:31.496Z,68.44
2016-11-29T03:31:31.457Z,68.63
2016-11-29T03:32:31.411Z,68.54
2016-11-29T03:33:31.371Z,68.73
2016-11-29T03:34:31.322Z,68.92
2016-11-29T03:35:31.277Z,68.92
2016-11-29T03:36:31.239Z,69.11
2016-11-29T03:37:31.186Z,69.01
2016-11-29T03:38:30.840Z,69.11
2016-11-29T03:39:30.799Z,68.82
2016-11-29T03:40:31.058Z,68.92
2016-11-29T03:41:30.706Z,69.39
2016-11-29T03:42:30.967Z,69.11
2016-11-29T03:43:30.622Z,69.39
2016-11-29T03:44:30.879Z,68.82
2016-11-29T03:45:30.531Z,69.11
2016-11-29T03:46:30.793Z,69.3
2016-11-29T03:47:30.749Z,69.11
2016-11-29T03:48:30.699Z,69.39
2016-11-29T03:49:30.664Z,69.3
2016-11-29T03:50:30.611Z,69.58
2016-11-29T03:51:30.568Z,69.77
2016-11-29T03:52:30.524Z,70.24
2016-11-29T03:53:30.482Z,70.15
2016-11-29T03:54:30.436Z,69.77
2016-11-29T03:55:30.394Z,69.86
2016-11-29T03:56:30.346Z,70.05
2016-11-29T03:57:30.306Z,70.24
2016-11-29T03:58:30.261Z,70.15
2016-11-29T03:59:30.213Z,70.43
2016-11-29T04:00:30.169Z,70.34
2016-11-29T04:01:30.126Z,70.34
2016-11-29T04:02:29.780Z,70.15
2016-11-29T04:03:30.037Z,70.53
2016-11-29T04:04:29.691Z,70.62
2016-11-29T04:05:29.949Z,70.81
2016-11-29T04:06:29.908Z,70.24
2016-11-29T04:07:29.859Z,70.34
2016-11-29T04:08:29.815Z,70.24
2016-11-29T04:09:29.774Z,70.15
2016-11-29T04:10:29.759Z,69.86
2016-11-29T04:11:29.682Z,70.24
2016-11-29T04:12:29.338Z,70.43
2016-11-29T04:13:29.599Z,70.62
2016-11-29T04:14:29.553Z,70.34
2016-11-29T04:15:29.506Z,70.05
2016-11-29T04:16:29.461Z,70.62
2016-11-29T04:17:29.149Z,70.34
2016-11-29T04:18:29.372Z,70.34
2016-11-29T04:19:29.333Z,70.43
2016-11-29T04:20:29.288Z,70.34
2016-11-29T04:21:28.939Z,70.34
2016-11-29T04:22:28.894Z,70.24
2016-11-29T04:23:29.157Z,70.34
2016-11-29T04:24:28.808Z,70.34
2016-11-29T04:25:28.764Z,70.34
2016-11-29T04:26:29.021Z,69.96
2016-11-29T04:27:28.983Z,70.24
2016-11-29T04:28:28.629Z,70.15
2016-11-29T04:29:28.890Z,70.05
2016-11-29T04:30:28.842Z,70.05
2016-11-29T04:31:28.801Z,70.24
2016-11-29T04:32:28.754Z,70.24
2016-11-29T04:33:28.409Z,69.86
2016-11-29T04:34:28.666Z,69.96
2016-11-29T04:35:28.332Z,70.15
2016-11-29T04:36:28.577Z,70.15
2016-11-29T04:37:28.541Z,70.15
2016-11-29T04:38:28.489Z,70.05
2016-11-29T04:39:28.446Z,70.05
2016-11-29T04:40:28.401Z,70.24
2016-11-29T04:41:28.060Z,70.34
2016-11-29T04:42:28.314Z,70.24
2016-11-29T04:43:28.265Z,70.11
2016-11-29T04:44:28.222Z,70.15
2016-11-29T04:45:28.180Z,70.34
2016-11-29T04:46:28.136Z,70.24
2016-11-29T04:47:28.123Z,70.15
2016-11-29T04:48:28.045Z,70.53
2016-11-29T04:49:28.001Z,70.9
2016-11-29T04:50:27.657Z,70.68
2016-11-29T04:51:27.912Z,70.9
2016-11-29T04:52:27.874Z,71.09
2016-11-29T04:53:27.826Z,71.43
2016-11-29T04:54:27.782Z,70.77
2016-11-29T04:55:27.439Z,71
2016-11-29T04:56:27.693Z,71.34
2016-11-29T04:57:27.647Z,71.34
2016-11-29T04:58:27.301Z,71.34
2016-11-29T04:59:27.257Z,70.87
2016-11-29T05:00:27.516Z,71.62
2016-11-29T05:01:27.477Z,71.34
2016-11-29T05:02:27.427Z,71.53
2016-11-29T05:03:27.080Z,71.34
2016-11-29T05:04:27.337Z,71.15
2016-11-29T05:05:27.293Z,71.34
2016-11-29T05:06:26.946Z,71.34
2016-11-29T05:07:27.204Z,71.25
2016-11-29T05:08:27.162Z,71.53
2016-11-29T05:09:27.155Z,71.43
2016-11-29T05:10:27.074Z,71.34
2016-11-29T05:11:27.027Z,71.91
2016-11-29T05:12:26.984Z,72.28
2016-11-29T05:13:26.938Z,72.38
2016-11-29T05:14:26.896Z,72.75
2016-11-29T05:15:26.851Z,73.22
2016-11-29T05:16:26.808Z,72.66
2016-11-29T05:17:26.463Z,72.66
2016-11-29T05:18:26.721Z,72.66
2016-11-29T05:19:26.674Z,72.66
2016-11-29T05:20:26.631Z,72.75
2016-11-29T05:21:26.585Z,73.13
2016-11-29T05:22:26.543Z,73.03
2016-11-29T05:23:26.193Z,73.13
2016-11-29T05:24:26.452Z,72.94
2016-11-29T05:25:26.411Z,73.69
2016-11-29T05:26:26.366Z,73.41
2016-11-29T05:27:26.320Z,73.6
2016-11-29T05:28:26.275Z,73.79
2016-11-29T05:29:26.230Z,73.13
2016-11-29T05:30:25.919Z,73.69
2016-11-29T05:31:26.144Z,73.51
2016-11-29T05:32:26.097Z,73.6
2016-11-29T05:33:26.056Z,73.6
2016-11-29T05:34:26.013Z,73.03
2016-11-29T05:35:25.966Z,73.6
2016-11-29T05:36:25.920Z,73.32
2016-11-29T05:37:25.883Z,73.69
2016-11-29T05:38:25.836Z,73.98
2016-11-29T05:39:25.789Z,74.17
2016-11-29T05:40:25.448Z,74.45
2016-11-29T05:41:25.706Z,74.55
2016-11-29T05:42:25.655Z,75.21
2016-11-29T05:43:25.610Z,75.21
2016-11-29T05:44:25.567Z,75.3
2016-11-29T05:45:25.525Z,75.3
2016-11-29T05:46:25.484Z,75.87
2016-11-29T05:47:25.439Z,75.87
2016-11-29T05:48:25.088Z,76.06
2016-11-29T05:49:25.345Z,75.96
2016-11-29T05:50:25.303Z,75.3
2016-11-29T05:51:25.258Z,75.21
2016-11-29T05:52:25.214Z,75.21
2016-11-29T05:53:25.167Z,75.4
2016-11-29T05:54:25.126Z,75.11
2016-11-29T05:55:25.081Z,74.83
2016-11-29T05:56:25.035Z,75.21
2016-11-29T05:57:24.993Z,74.74
2016-11-29T05:58:24.949Z,75.02
2016-11-29T05:59:24.601Z,75.21
2016-11-29T06:00:24.857Z,75.21
2016-11-29T06:01:24.815Z,75.4
2016-11-29T06:02:24.771Z,74.64
2016-11-29T06:03:24.726Z,75.21
2016-11-29T06:04:24.684Z,75.02
2016-11-29T06:05:24.638Z,75.49
2016-11-29T06:06:24.595Z,75.59
2016-11-29T06:07:24.246Z,75.68
2016-11-29T06:08:24.503Z,75.68
2016-11-29T06:09:24.461Z,75.96
2016-11-29T06:10:24.416Z,75.87
2016-11-29T06:11:24.368Z,75.78
2016-11-29T06:12:24.328Z,75.87
2016-11-29T06:13:24.283Z,75.87
2016-11-29T06:14:24.236Z,75.68
2016-11-29T06:15:24.193Z,75.21
2016-11-29T06:16:24.147Z,74.36
2016-11-29T06:17:24.105Z,74.26
2016-11-29T06:18:23.757Z,74.17
2016-11-29T06:19:24.019Z,74.64
2016-11-29T06:20:23.974Z,74.74
2016-11-29T06:21:23.928Z,74.83
2016-11-29T06:22:23.878Z,74.64
2016-11-29T06:23:23.536Z,74.74
2016-11-29T06:24:23.792Z,74.92
2016-11-29T06:25:23.747Z,75.02
2016-11-29T06:26:23.401Z,74.45
2016-11-29T06:27:23.661Z,75.4
2016-11-29T06:28:23.617Z,75.21
2016-11-29T06:29:23.275Z,75.21
2016-11-29T06:30:23.528Z,75.02
2016-11-29T06:31:23.181Z,75.3
2016-11-29T06:32:23.134Z,75.4
2016-11-29T06:33:23.394Z,75.4
2016-11-29T06:34:23.349Z,75.3
2016-11-29T06:35:23.306Z,75.02
2016-11-29T06:36:23.259Z,75.3
2016-11-29T06:37:23.213Z,75.3
2016-11-29T06:38:23.170Z,75.21
2016-11-29T06:39:23.127Z,74.92
2016-11-29T06:40:23.080Z,74.36
2016-11-29T06:41:23.038Z,73.88
2016-11-29T06:42:22.991Z,73.69
2016-11-29T06:43:22.645Z,73.69
2016-11-29T06:44:22.902Z,73.51
2016-11-29T06:45:22.860Z,73.51
2016-11-29T06:46:22.815Z,73.69
2016-11-29T06:47:22.771Z,73.69
2016-11-29T06:48:22.728Z,73.32
2016-11-29T06:49:22.382Z,73.51
2016-11-29T06:50:22.336Z,73.88
2016-11-29T06:51:22.290Z,73.41
2016-11-29T06:52:22.548Z,73.69
2016-11-29T06:53:22.506Z,73.03
2016-11-29T06:54:22.161Z,73.32
2016-11-29T06:55:22.417Z,73.13
2016-11-29T06:56:22.273Z,72.85
2016-11-29T06:57:22.331Z,72.75
2016-11-29T06:58:21.979Z,72.66
2016-11-29T06:59:21.936Z,72.75
2016-11-29T07:00:22.194Z,72.09
2016-11-29T07:01:22.149Z,71.53
2016-11-29T07:02:22.103Z,70.81
2016-11-29T07:03:22.058Z,69.86
2016-11-29T07:04:22.015Z,69.11
2016-11-29T07:05:21.971Z,67.88
2016-11-29T07:06:21.624Z,67.32
2016-11-29T07:07:21.915Z,66.22
2016-11-29T07:08:21.837Z,64.89
2016-11-29T07:09:21.490Z,64.14
2016-11-29T07:10:21.752Z,63.19
2016-11-29T07:11:21.705Z,62.72
2016-11-29T07:12:21.662Z,63
2016-11-29T07:13:21.619Z,62.47
2016-11-29T07:14:21.581Z,60.96
2016-11-29T07:15:21.534Z,59.38
2016-11-29T07:16:21.497Z,57.58
2016-11-29T07:17:21.448Z,56.01
2016-11-29T07:18:21.401Z,55.53
2016-11-29T07:19:21.360Z,54.77
2016-11-29T07:20:21.013Z,53.47
2016-11-29T07:21:21.283Z,51.39
2016-11-29T07:22:21.232Z,50.16
2016-11-29T07:23:20.889Z,50
2016-11-29T07:24:21.147Z,49.15
2016-11-29T07:25:21.107Z,48.2
2016-11-29T07:26:20.765Z,48.01
2016-11-29T07:27:20.721Z,48.2
2016-11-29T07:28:20.984Z,48.39
2016-11-29T07:29:20.944Z,48.2
2016-11-29T07:30:20.907Z,46.71
2016-11-29T07:31:20.863Z,45.38
2016-11-29T07:32:20.821Z,45.57
2016-11-29T07:33:20.783Z,44.53
2016-11-29T07:34:20.738Z,44.53
2016-11-29T07:35:20.698Z,44.34
2016-11-29T07:36:20.659Z,43.98
2016-11-29T07:37:20.621Z,43.13
2016-11-29T07:38:20.574Z,43.04
2016-11-29T07:39:20.536Z,44.06
2016-11-29T07:40:20.500Z,44.06
2016-11-29T07:41:20.151Z,42.27
2016-11-29T07:42:20.112Z,42.27
2016-11-29T07:43:20.380Z,42.63
2016-11-29T07:44:20.342Z,43.3
2016-11-29T07:45:20.293Z,43.49
2016-11-29T07:46:20.259Z,43.87
2016-11-29T07:47:20.224Z,43.96
2016-11-29T07:48:19.880Z,44.15
2016-11-29T07:49:19.842Z,44.53
2016-11-29T07:50:20.099Z,43.3
2016-11-29T07:51:20.062Z,42.66
2016-11-29T07:52:20.024Z,42.73
2016-11-29T07:53:19.988Z,43.01
2016-11-29T07:54:19.647Z,42.73
2016-11-29T07:55:19.911Z,42.75
2016-11-29T07:56:19.872Z,43.01
2016-11-29T07:57:19.835Z,42.63
2016-11-29T07:58:19.795Z,42.56
2016-11-29T07:59:19.761Z,41.89
2016-11-29T08:00:19.432Z,40.95
2016-11-29T08:01:19.684Z,40.12
2016-11-29T08:02:19.344Z,39.36
2016-11-29T08:03:19.608Z,38.62
2016-11-29T08:04:19.269Z,37.95
2016-11-29T08:05:19.229Z,37.1
2016-11-29T08:06:19.498Z,36.15
2016-11-29T08:07:19.463Z,35.31
2016-11-29T08:08:19.423Z,35.5
2016-11-29T08:09:19.385Z,36.82
2016-11-29T08:10:19.352Z,36.72
2016-11-29T08:11:19.312Z,35.14
2016-11-29T08:12:19.277Z,34
2016-11-29T08:13:19.269Z,33.15
2016-11-29T08:14:19.207Z,33.91
2016-11-29T08:15:19.168Z,33.44
2016-11-29T08:16:19.135Z,34.17
2016-11-29T08:17:19.097Z,35.11
2016-11-29T08:18:19.059Z,34.84
2016-11-29T08:19:18.724Z,34.75
2016-11-29T08:20:18.992Z,35.13
2016-11-29T08:21:18.954Z,34.36
2016-11-29T08:22:18.616Z,33.81
2016-11-29T08:23:18.882Z,33.15
2016-11-29T08:24:18.854Z,34.17
2016-11-29T08:25:18.814Z,36.15
2016-11-29T08:26:18.782Z,36.82
2016-11-29T08:27:18.747Z,35.5
2016-11-29T08:28:18.709Z,35.22
2016-11-29T08:29:18.675Z,35.77
2016-11-29T08:30:18.638Z,35.22
2016-11-29T08:31:18.603Z,33.72
2016-11-29T08:32:18.568Z,33.17
2016-11-29T08:33:18.534Z,31.47
2016-11-29T08:34:18.501Z,30.9
2016-11-29T08:35:18.470Z,31.07
2016-11-29T08:36:18.432Z,31.26
2016-11-29T08:37:18.397Z,31.07
2016-11-29T08:38:18.361Z,30.52
2016-11-29T08:39:18.329Z,29.75
2016-11-29T08:40:18.297Z,30.04
2016-11-29T08:41:18.261Z,30.33
2016-11-29T08:42:18.238Z,30.88
2016-11-29T08:43:18.196Z,31.92
2016-11-29T08:44:18.158Z,31.92
2016-11-29T08:45:18.124Z,31.92
2016-11-29T08:46:18.091Z,31.36
2016-11-29T08:47:18.057Z,30.79
2016-11-29T08:48:18.023Z,31.26
2016-11-29T08:49:17.687Z,32.67
2016-11-29T08:50:17.956Z,33.8
2016-11-29T08:51:17.921Z,34.63
2016-11-29T08:52:17.891Z,34.25
2016-11-29T08:53:17.553Z,33.7
2016-11-29T08:54:17.820Z,32.2
2016-11-29T08:55:17.786Z,31.45
2016-11-29T08:56:17.752Z,31.36
2016-11-29T08:57:17.719Z,31.36
2016-11-29T08:58:17.687Z,30.79
2016-11-29T08:59:17.659Z,30.04
2016-11-29T09:00:17.622Z,29.66
2016-11-29T09:01:17.588Z,28.53
2016-11-29T09:02:17.556Z,27.31
2016-11-29T09:03:17.524Z,26.18
2016-11-29T09:04:17.187Z,25.81
2016-11-29T09:05:17.155Z,26.46
2016-11-29T09:06:17.425Z,26.74
2016-11-29T09:07:17.087Z,26.65
2016-11-29T09:08:17.357Z,27.12
2016-11-29T09:09:17.329Z,26.65
2016-11-29T09:10:17.292Z,25.9
2016-11-29T09:11:17.264Z,25.52
2016-11-29T09:12:16.926Z,25.61
2016-11-29T09:13:17.197Z,25.52
2016-11-29T09:14:17.165Z,26.55
2016-11-29T09:15:17.133Z,27.3
2016-11-29T09:16:17.105Z,27.11
2016-11-29T09:17:16.767Z,26.93
2016-11-29T09:18:16.737Z,25.99
2016-11-29T09:19:17.014Z,25.42
2016-11-29T09:20:16.675Z,25.42
2016-11-29T09:21:16.644Z,26.17
2016-11-29T09:22:16.916Z,26.36
2016-11-29T09:23:16.582Z,26.55
2016-11-29T09:24:16.852Z,27.01
2016-11-29T09:25:16.818Z,28.52
2016-11-29T09:26:16.786Z,28.98
2016-11-29T09:27:16.455Z,29.64
2016-11-29T09:28:16.426Z,29.92
2016-11-29T09:29:16.693Z,29.84
2016-11-29T09:30:16.663Z,29.93
2016-11-29T09:31:16.632Z,29.46
2016-11-29T09:32:16.300Z,28.79
2016-11-29T09:33:16.569Z,27.3
2016-11-29T09:34:16.238Z,26.55
2016-11-29T09:35:16.505Z,25.89
2016-11-29T09:36:16.175Z,25.51
2016-11-29T09:37:16.143Z,26.35
2016-11-29T09:38:16.415Z,26.07
2016-11-29T09:39:16.380Z,26.44
2016-11-29T09:40:16.347Z,26.07
2016-11-29T09:41:16.020Z,26.07
2016-11-29T09:42:15.985Z,25.03
2016-11-29T09:43:16.252Z,24.66
2016-11-29T09:44:16.220Z,25.04
2016-11-29T09:45:16.191Z,24.93
2016-11-29T09:46:16.159Z,25.98
2016-11-29T09:47:16.129Z,27.3
2016-11-29T09:48:16.096Z,27.57
2016-11-29T09:49:15.764Z,27.2
2016-11-29T09:50:16.039Z,26.36
2016-11-29T09:51:16.005Z,26.46
2016-11-29T09:52:15.970Z,25.04
2016-11-29T09:53:15.943Z,24.39
2016-11-29T09:54:15.908Z,24.29
2016-11-29T09:55:15.578Z,24.85
2016-11-29T09:56:15.846Z,26.54
2016-11-29T09:57:15.812Z,26.92
2016-11-29T09:58:15.480Z,25.6
2016-11-29T09:59:15.752Z,24.47
2016-11-29T10:00:15.719Z,25.04
2016-11-29T10:01:15.388Z,24.95
2016-11-29T10:02:15.655Z,24.18
2016-11-29T10:03:15.626Z,24.66
2016-11-29T10:04:15.596Z,24.96
2016-11-29T10:05:15.563Z,23.82
2016-11-29T10:06:15.532Z,22.2
2016-11-29T10:07:15.501Z,22.2
2016-11-29T10:08:15.167Z,23.05
2016-11-29T10:09:15.443Z,23.34
2016-11-29T10:10:15.107Z,23.24
2016-11-29T10:11:15.375Z,23.99
2016-11-29T10:12:15.045Z,25.68
2016-11-29T10:13:15.317Z,26.43
2016-11-29T10:14:15.282Z,27.28
2016-11-29T10:15:15.248Z,27.67
2016-11-29T10:16:14.930Z,27.57
2016-11-29T10:17:15.189Z,27
2016-11-29T10:18:15.154Z,26.64
2016-11-29T10:19:15.122Z,26.9
2016-11-29T10:20:15.090Z,26.73
2016-11-29T10:21:15.062Z,26.82
2016-11-29T10:22:15.027Z,27
2016-11-29T10:23:14.991Z,27.48
2016-11-29T10:24:14.966Z,27.19
2016-11-29T10:25:14.628Z,27.09
2016-11-29T10:26:14.900Z,26.92
2016-11-29T10:27:14.563Z,27.11
2016-11-29T10:28:14.842Z,27.11
2016-11-29T10:29:14.799Z,27.01
2016-11-29T10:30:14.766Z,26.82
2016-11-29T10:31:14.733Z,25.78
2016-11-29T10:32:14.702Z,25.7
2016-11-29T10:33:14.367Z,24.57
2016-11-29T10:34:14.333Z,24.09
2016-11-29T10:35:14.606Z,23.34
2016-11-29T10:36:14.570Z,23.05
2016-11-29T10:37:14.242Z,23.41
2016-11-29T10:38:14.509Z,24.08
2016-11-29T10:39:14.475Z,23.71
2016-11-29T10:40:14.443Z,23.61
2016-11-29T10:41:14.411Z,24.46
2016-11-29T10:42:14.376Z,25.11
2016-11-29T10:43:14.046Z,25.7
2016-11-29T10:44:14.008Z,25.51
2016-11-29T10:45:14.286Z,25.12
2016-11-29T10:46:14.248Z,24.08
2016-11-29T10:47:13.912Z,24.18
2016-11-29T10:48:14.179Z,24.84
2016-11-29T10:49:13.848Z,25.6
2016-11-29T10:50:14.115Z,24.37
2016-11-29T10:51:14.085Z,24.18
2016-11-29T10:52:13.748Z,24.57
2016-11-29T10:53:14.021Z,23.98
2016-11-29T10:54:13.682Z,23.99
2016-11-29T10:55:13.649Z,23.33
2016-11-29T10:56:13.919Z,23.04
2016-11-29T10:57:13.885Z,24.09
2016-11-29T10:58:13.558Z,23.98
2016-11-29T10:59:13.817Z,23.33
2016-11-29T11:00:13.483Z,23.05
2016-11-29T11:01:13.452Z,23.15
2016-11-29T11:02:13.722Z,24.09
2016-11-29T11:03:13.690Z,23.89
2016-11-29T11:04:13.655Z,24.27
2016-11-29T11:05:13.323Z,24.55
2016-11-29T11:06:13.588Z,24.93
2016-11-29T11:07:13.557Z,24.84
2016-11-29T11:08:13.518Z,25.3
2016-11-29T11:09:13.186Z,25.49
2016-11-29T11:10:13.453Z,25.4
2016-11-29T11:11:13.422Z,25.49
2016-11-29T11:12:13.383Z,25.96
2016-11-29T11:13:13.352Z,25.96
2016-11-29T11:14:13.313Z,25.96
2016-11-29T11:15:12.976Z,26.06
2016-11-29T11:16:13.250Z,26.06
2016-11-29T11:17:12.910Z,26.16
2016-11-29T11:18:13.178Z,25.96
2016-11-29T11:19:13.143Z,25.87
2016-11-29T11:20:13.107Z,26.62
2016-11-29T11:21:13.069Z,27.19
2016-11-29T11:22:13.033Z,27
2016-11-29T11:23:12.696Z,27.56
2016-11-29T11:24:12.960Z,28.13
2016-11-29T11:25:12.623Z,28.6
2016-11-29T11:26:12.896Z,28.88
2016-11-29T11:27:12.853Z,28.88
2016-11-29T11:28:12.515Z,28.7
2016-11-29T11:29:12.779Z,28.7
2016-11-29T11:30:12.443Z,28.79
2016-11-29T11:31:12.703Z,28.79
2016-11-29T11:32:12.670Z,28.13
2016-11-29T11:33:12.631Z,27.65
2016-11-29T11:34:12.595Z,28.03
2016-11-29T11:35:12.555Z,28.51
2016-11-29T11:36:12.522Z,28.78
2016-11-29T11:37:12.486Z,28.49
2016-11-29T11:38:12.449Z,28.78
2016-11-29T11:39:12.405Z,28.41
2016-11-29T11:40:12.367Z,28.7
2016-11-29T11:41:12.328Z,28.59
2016-11-29T11:42:12.293Z,28.7
2016-11-29T11:43:12.247Z,28.68
2016-11-29T11:44:11.910Z,29.73
2016-11-29T11:45:12.174Z,30.38
2016-11-29T11:46:12.134Z,30.76
2016-11-29T11:47:12.098Z,30.66
2016-11-29T11:48:11.768Z,30.85
2016-11-29T11:49:12.018Z,31.13
2016-11-29T11:50:11.976Z,31.33
2016-11-29T11:51:11.634Z,31.04
2016-11-29T11:52:11.901Z,30.85
2016-11-29T11:53:11.855Z,31.13
2016-11-29T11:54:11.818Z,30.76
2016-11-29T11:55:11.780Z,30.3
2016-11-29T11:56:11.766Z,30.58
2016-11-29T11:57:11.399Z,30.57
2016-11-29T11:58:11.659Z,30.85
2016-11-29T11:59:11.622Z,31.04
2016-11-29T12:00:11.579Z,31.33
2016-11-29T12:01:11.568Z,31.9
2016-11-29T12:02:11.499Z,32.28
2016-11-29T12:03:11.457Z,32.73
2016-11-29T12:04:11.429Z,33.5
2016-11-29T12:05:11.075Z,33.78
2016-11-29T12:06:11.337Z,35.28
2016-11-29T12:07:10.994Z,35.28
2016-11-29T12:08:11.256Z,35.94
2016-11-29T12:09:11.219Z,35.74
2016-11-29T12:10:11.180Z,36.68
2016-11-29T12:11:11.135Z,37.35
2016-11-29T12:12:11.095Z,37.73
2016-11-29T12:13:11.055Z,37.8
2016-11-29T12:14:11.015Z,38.18
2016-11-29T12:15:10.973Z,38.18
2016-11-29T12:16:10.932Z,38.37
2016-11-29T12:17:10.891Z,39.22
2016-11-29T12:18:10.851Z,39.03
2016-11-29T12:19:10.819Z,39.03
2016-11-29T12:20:10.468Z,39.6
2016-11-29T12:21:10.427Z,39.79
2016-11-29T12:22:10.687Z,39.98
2016-11-29T12:23:10.383Z,39.6
2016-11-29T12:24:10.304Z,39.51
2016-11-29T12:25:10.568Z,39.7
2016-11-29T12:26:10.525Z,40.17
2016-11-29T12:27:10.181Z,40.55
2016-11-29T12:28:10.447Z,41.02
2016-11-29T12:29:10.404Z,40.83
2016-11-29T12:30:10.364Z,41.12
2016-11-29T12:31:10.321Z,40.83
2016-11-29T12:32:10.282Z,40.36
2016-11-29T12:33:10.238Z,40.17
2016-11-29T12:34:09.895Z,40.17
2016-11-29T12:35:09.854Z,41
2016-11-29T12:36:10.117Z,41.19
2016-11-29T12:37:10.074Z,41.28
2016-11-29T12:38:10.039Z,41.38
2016-11-29T12:39:09.989Z,41.47
2016-11-29T12:40:09.954Z,41.76
2016-11-29T12:41:09.911Z,42.04
2016-11-29T12:42:09.868Z,41.66
2016-11-29T12:43:09.529Z,41.28
2016-11-29T12:44:09.788Z,41.28
2016-11-29T12:45:09.746Z,41.28
2016-11-29T12:46:09.708Z,41.5
2016-11-29T12:47:09.664Z,41.12
2016-11-29T12:48:09.624Z,40.83
2016-11-29T12:49:09.579Z,40.64
2016-11-29T12:50:09.241Z,41.09
2016-11-29T12:51:09.497Z,41.28
2016-11-29T12:52:09.461Z,41.57
2016-11-29T12:53:09.417Z,41.19
2016-11-29T12:54:09.374Z,41.19
2016-11-29T12:55:09.332Z,41.57
2016-11-29T12:56:09.291Z,41.31